createdAt,value
2022-09-19T00:00:04.837Z,989.07
2022-09-19T00:01:04.848Z,989.06
2022-09-19T00:02:04.951Z,989.16
2022-09-19T00:03:04.877Z,989.15
2022-09-19T00:04:04.887Z,989.13
2022-09-19T00:05:04.805Z,989.12
2022-09-19T00:06:04.809Z,989.14
2022-09-19T00:07:04.797Z,989.12
2022-09-19T00:08:04.810Z,989.19
2022-09-19T00:09:04.793Z,989.11
2022-09-19T00:10:04.797Z,989.13
2022-09-19T00:11:04.761Z,989.11
2022-09-19T00:12:04.856Z,989.19
2022-09-19T00:13:04.753Z,989.17
2022-09-19T00:14:04.745Z,989.19
2022-09-19T00:15:04.761Z,989.13
2022-09-19T00:16:04.767Z,989.20
2022-09-19T00:17:04.725Z,989.17
2022-09-19T00:18:04.724Z,989.10
2022-09-19T00:19:04.916Z,989.11
2022-09-19T00:20:04.776Z,989.09
2022-09-19T00:21:04.697Z,989.07
2022-09-19T00:22:04.696Z,988.92
2022-09-19T00:23:04.682Z,989.08
2022-09-19T00:24:04.665Z,988.93
2022-09-19T00:25:04.676Z,988.92
2022-09-19T00:26:04.684Z,988.98
2022-09-19T00:27:04.686Z,988.99
2022-09-19T00:28:04.746Z,988.98
2022-09-19T00:29:04.648Z,989.01
2022-09-19T00:30:04.631Z,989.13
2022-09-19T00:31:04.734Z,989.09
2022-09-19T00:32:04.631Z,989.15
2022-09-19T00:33:04.618Z,989.17
2022-09-19T00:34:04.706Z,989.23
2022-09-19T00:35:04.592Z,989.18
2022-09-19T00:36:04.585Z,989.22
2022-09-19T00:37:04.608Z,989.19
2022-09-19T00:38:04.585Z,989.29
2022-09-19T00:39:04.571Z,989.21
2022-09-19T00:40:04.621Z,989.20
2022-09-19T00:41:04.564Z,989.18
2022-09-19T00:42:04.600Z,989.22
2022-09-19T00:43:04.553Z,989.17
2022-09-19T00:44:04.640Z,989.23
2022-09-19T00:45:04.535Z,989.19
2022-09-19T00:46:04.593Z,989.18
2022-09-19T00:47:04.548Z,989.21
2022-09-19T00:48:04.524Z,989.14
2022-09-19T00:49:04.591Z,989.29
2022-09-19T00:50:04.520Z,989.22
2022-09-19T00:51:04.500Z,989.23
2022-09-19T00:52:04.492Z,989.13
2022-09-19T00:53:04.487Z,989.30
2022-09-19T00:54:04.479Z,989.26
2022-09-19T00:55:04.479Z,989.24
2022-09-19T00:56:04.463Z,989.31
2022-09-19T00:57:04.463Z,989.27
2022-09-19T00:58:04.451Z,989.24
2022-09-19T00:59:04.452Z,989.26
2022-09-19T01:00:04.549Z,989.24
2022-09-19T01:01:04.473Z,989.29
2022-09-19T01:02:04.428Z,989.28
2022-09-19T01:03:04.440Z,989.33
2022-09-19T01:04:04.495Z,989.44
2022-09-19T01:05:04.424Z,989.28
2022-09-19T01:06:04.399Z,989.32
2022-09-19T01:07:04.388Z,989.34
2022-09-19T01:08:04.388Z,989.38
2022-09-19T01:09:04.376Z,989.37
2022-09-19T01:10:04.380Z,989.40
2022-09-19T01:11:04.361Z,989.42
2022-09-19T01:12:04.364Z,989.47
2022-09-19T01:13:04.349Z,989.43
2022-09-19T01:14:04.340Z,989.48
2022-09-19T01:15:04.351Z,989.43
2022-09-19T01:16:04.464Z,989.48
2022-09-19T01:17:04.351Z,989.51
2022-09-19T01:18:04.320Z,989.54
2022-09-19T01:19:04.372Z,989.51
2022-09-19T01:20:04.323Z,989.54
2022-09-19T01:21:04.304Z,989.53
2022-09-19T01:22:04.292Z,989.51
2022-09-19T01:23:04.284Z,989.56
2022-09-19T01:24:04.279Z,989.57
2022-09-19T01:25:04.275Z,989.56
2022-09-19T01:26:04.271Z,989.59
2022-09-19T01:27:04.254Z,989.61
2022-09-19T01:28:04.247Z,989.62
2022-09-19T01:29:04.240Z,989.61
2022-09-19T01:30:04.234Z,989.69
2022-09-19T01:31:04.255Z,989.67
2022-09-19T01:32:04.317Z,989.65
2022-09-19T01:33:04.231Z,989.69
2022-09-19T01:34:04.428Z,989.72
2022-09-19T01:35:04.198Z,989.72
2022-09-19T01:36:04.227Z,989.72
2022-09-19T01:37:04.191Z,989.77
2022-09-19T01:38:04.186Z,989.77
2022-09-19T01:39:04.195Z,989.79
2022-09-19T01:40:04.190Z,989.78
2022-09-19T01:41:04.163Z,989.87
2022-09-19T01:42:04.182Z,989.79
2022-09-19T01:43:04.150Z,989.95
2022-09-19T01:44:04.146Z,989.97
2022-09-19T01:45:04.140Z,989.82
2022-09-19T01:46:04.177Z,989.99
2022-09-19T01:47:04.135Z,990.03
2022-09-19T01:48:04.209Z,990.04
2022-09-19T01:49:04.169Z,990.03
2022-09-19T01:50:04.094Z,990.06
2022-09-19T01:51:04.094Z,990.08
2022-09-19T01:52:04.086Z,990.03
2022-09-19T01:53:04.086Z,990.08
2022-09-19T01:54:04.078Z,990.07
2022-09-19T01:55:04.066Z,990.11
2022-09-19T01:56:04.059Z,990.13
2022-09-19T01:57:04.058Z,990.09
2022-09-19T01:58:04.055Z,990.14
2022-09-19T01:59:04.030Z,990.20
2022-09-19T02:00:04.026Z,990.19
2022-09-19T02:01:04.071Z,990.19
2022-09-19T02:02:04.060Z,990.18
2022-09-19T02:03:04.030Z,990.22
2022-09-19T02:04:04.207Z,990.20
2022-09-19T02:05:03.999Z,990.21
2022-09-19T02:06:03.986Z,990.22
2022-09-19T02:07:03.978Z,990.11
2022-09-19T02:08:03.979Z,990.22
2022-09-19T02:09:03.987Z,990.18
2022-09-19T02:10:03.967Z,990.17
2022-09-19T02:11:03.958Z,990.14
2022-09-19T02:12:03.951Z,990.14
2022-09-19T02:13:03.946Z,990.06
2022-09-19T02:14:03.962Z,990.12
2022-09-19T02:15:03.930Z,990.16
2022-09-19T02:16:03.967Z,990.14
2022-09-19T02:17:03.919Z,990.20
2022-09-19T02:18:03.910Z,990.25
2022-09-19T02:19:03.933Z,990.21
2022-09-19T02:20:04.008Z,990.22
2022-09-19T02:21:03.915Z,990.29
2022-09-19T02:22:03.883Z,990.23
2022-09-19T02:23:03.874Z,990.32
2022-09-19T02:24:03.874Z,990.32
2022-09-19T02:25:03.870Z,990.33
2022-09-19T02:26:03.864Z,990.39
2022-09-19T02:27:03.859Z,990.36
2022-09-19T02:28:03.842Z,990.32
2022-09-19T02:29:03.839Z,990.42
2022-09-19T02:30:03.851Z,990.46
2022-09-19T02:31:03.823Z,990.37
2022-09-19T02:32:03.822Z,990.40
2022-09-19T02:33:03.810Z,990.42
2022-09-19T02:34:03.938Z,990.38
2022-09-19T02:35:03.813Z,990.43
2022-09-19T02:36:03.787Z,990.48
2022-09-19T02:37:03.784Z,990.43
2022-09-19T02:38:03.770Z,990.46
2022-09-19T02:39:03.759Z,990.47
2022-09-19T02:40:03.818Z,990.50
2022-09-19T02:41:03.773Z,990.47
2022-09-19T02:42:03.745Z,990.57
2022-09-19T02:43:03.734Z,990.59
2022-09-19T02:44:03.723Z,990.53
2022-09-19T02:45:03.718Z,990.51
2022-09-19T02:46:03.767Z,990.55
2022-09-19T02:47:03.716Z,990.53
2022-09-19T02:48:03.709Z,990.55
2022-09-19T02:49:03.769Z,990.59
2022-09-19T02:50:03.686Z,990.68
2022-09-19T02:51:03.686Z,990.67
2022-09-19T02:52:03.781Z,990.60
2022-09-19T02:53:03.666Z,990.68
2022-09-19T02:54:03.653Z,990.68
2022-09-19T02:55:03.655Z,990.77
2022-09-19T02:56:03.646Z,990.73
2022-09-19T02:57:03.658Z,990.70
2022-09-19T02:58:03.625Z,990.73
2022-09-19T02:59:03.630Z,990.72
2022-09-19T03:00:03.641Z,990.74
2022-09-19T03:01:03.733Z,990.70
2022-09-19T03:02:03.672Z,990.74
2022-09-19T03:03:03.614Z,990.72
2022-09-19T03:04:03.657Z,990.79
2022-09-19T03:05:03.587Z,990.71
2022-09-19T03:06:03.581Z,990.79
2022-09-19T03:07:03.573Z,990.75
2022-09-19T03:08:03.666Z,990.76
2022-09-19T03:09:03.555Z,990.76
2022-09-19T03:10:03.554Z,990.76
2022-09-19T03:11:03.547Z,990.81
2022-09-19T03:12:03.584Z,990.81
2022-09-19T03:13:03.571Z,990.83
2022-09-19T03:14:03.529Z,990.85
2022-09-19T03:15:03.525Z,990.88
2022-09-19T03:16:03.554Z,990.80
2022-09-19T03:17:03.501Z,990.78
2022-09-19T03:18:03.514Z,990.82
2022-09-19T03:19:03.490Z,990.88
2022-09-19T03:20:03.503Z,990.83
2022-09-19T03:21:03.480Z,990.87
2022-09-19T03:22:03.462Z,990.98
2022-09-19T03:23:03.470Z,990.98
2022-09-19T03:24:03.611Z,990.97
2022-09-19T03:25:03.453Z,990.95
2022-09-19T03:26:03.452Z,990.97
2022-09-19T03:27:03.429Z,991.01
2022-09-19T03:28:03.441Z,991.03
2022-09-19T03:29:03.425Z,991.09
2022-09-19T03:30:03.433Z,990.99
2022-09-19T03:31:03.405Z,991.05
2022-09-19T03:32:03.407Z,991.10
2022-09-19T03:33:03.389Z,991.12
2022-09-19T03:34:03.426Z,991.11
2022-09-19T03:35:03.391Z,991.03
2022-09-19T03:36:03.373Z,991.08
2022-09-19T03:37:03.374Z,991.13
2022-09-19T03:38:03.366Z,991.15
2022-09-19T03:39:03.345Z,991.20
2022-09-19T03:40:04.527Z,991.19
2022-09-19T03:41:03.338Z,991.20
2022-09-19T03:42:03.341Z,991.23
2022-09-19T03:43:03.327Z,991.23
2022-09-19T03:44:03.321Z,991.32
2022-09-19T03:45:03.321Z,991.39
2022-09-19T03:46:03.378Z,991.26
2022-09-19T03:47:03.305Z,991.27
2022-09-19T03:48:03.297Z,991.29
2022-09-19T03:49:03.302Z,991.27
2022-09-19T03:50:03.282Z,991.30
2022-09-19T03:51:03.293Z,991.35
2022-09-19T03:52:03.270Z,991.35
2022-09-19T03:53:03.262Z,991.36
2022-09-19T03:54:03.251Z,991.39
2022-09-19T03:55:03.265Z,991.42
2022-09-19T03:56:03.332Z,991.49
2022-09-19T03:57:03.229Z,991.44
2022-09-19T03:58:03.223Z,991.45
2022-09-19T03:59:03.217Z,991.48
2022-09-19T04:00:03.212Z,991.50
2022-09-19T04:01:03.327Z,991.48
2022-09-19T04:02:03.221Z,991.48
2022-09-19T04:03:03.192Z,991.48
2022-09-19T04:04:03.208Z,991.48
2022-09-19T04:05:03.179Z,991.45
2022-09-19T04:06:03.193Z,991.57
2022-09-19T04:07:03.165Z,991.49
2022-09-19T04:08:03.156Z,991.55
2022-09-19T04:09:03.157Z,991.55
2022-09-19T04:10:03.158Z,991.54
2022-09-19T04:11:03.129Z,991.55
2022-09-19T04:12:06.146Z,991.55
2022-09-19T04:13:04.148Z,991.51
2022-09-19T04:14:03.120Z,991.56
2022-09-19T04:15:03.121Z,991.56
2022-09-19T04:16:03.153Z,991.55
2022-09-19T04:17:21.588Z,991.53
2022-09-19T04:18:05.092Z,991.57
2022-09-19T04:19:03.156Z,991.56
2022-09-19T04:20:03.072Z,991.51
2022-09-19T04:21:03.077Z,991.56
2022-09-19T04:22:03.065Z,991.63
2022-09-19T04:23:03.058Z,991.65
2022-09-19T04:24:03.053Z,991.65
2022-09-19T04:25:03.049Z,991.61
2022-09-19T04:26:03.063Z,991.68
2022-09-19T04:27:03.036Z,991.68
2022-09-19T04:28:03.121Z,991.66
2022-09-19T04:29:03.021Z,991.69
2022-09-19T04:30:03.009Z,991.74
2022-09-19T04:31:03.015Z,991.76
2022-09-19T04:32:03.025Z,991.76
2022-09-19T04:33:02.985Z,991.79
2022-09-19T04:34:03.072Z,991.83
2022-09-19T04:35:02.985Z,991.87
2022-09-19T04:36:03.009Z,991.79
2022-09-19T04:37:02.969Z,991.83
2022-09-19T04:38:02.965Z,991.87
2022-09-19T04:39:02.957Z,991.86
2022-09-19T04:40:02.981Z,991.84
2022-09-19T04:41:02.945Z,991.79
2022-09-19T04:42:02.960Z,991.88
2022-09-19T04:43:02.931Z,991.88
2022-09-19T04:44:03.019Z,991.90
2022-09-19T04:45:02.924Z,991.89
2022-09-19T04:46:02.978Z,991.89
2022-09-19T04:47:02.900Z,991.94
2022-09-19T04:48:02.899Z,991.98
2022-09-19T04:49:02.913Z,992.00
2022-09-19T04:50:05.004Z,991.94
2022-09-19T04:51:03.888Z,991.95
2022-09-19T04:52:02.857Z,992.02
2022-09-19T04:53:02.857Z,992.00
2022-09-19T04:54:02.850Z,992.03
2022-09-19T04:55:03.896Z,992.08
2022-09-19T04:56:02.845Z,992.09
2022-09-19T04:57:02.844Z,992.04
2022-09-19T04:58:02.818Z,992.06
2022-09-19T04:59:02.816Z,992.11
2022-09-19T05:00:02.919Z,992.09
2022-09-19T05:01:02.824Z,992.16
2022-09-19T05:02:02.875Z,992.19
2022-09-19T05:03:02.796Z,992.14
2022-09-19T05:04:02.784Z,992.22
2022-09-19T05:05:02.776Z,992.16
2022-09-19T05:06:02.779Z,992.20
2022-09-19T05:07:02.784Z,992.21
2022-09-19T05:08:02.760Z,992.16
2022-09-19T05:09:02.753Z,992.30
2022-09-19T05:10:02.739Z,992.30
2022-09-19T05:11:02.748Z,992.27
2022-09-19T05:12:02.744Z,992.31
2022-09-19T05:13:02.721Z,992.33
2022-09-19T05:14:02.792Z,992.31
2022-09-19T05:15:02.712Z,992.32
2022-09-19T05:16:02.905Z,992.31
2022-09-19T05:17:02.687Z,992.26
2022-09-19T05:18:02.692Z,992.29
2022-09-19T05:19:02.675Z,992.30
2022-09-19T05:20:02.675Z,992.29
2022-09-19T05:21:02.695Z,992.29
2022-09-19T05:22:02.668Z,992.32
2022-09-19T05:23:02.654Z,992.29
2022-09-19T05:24:02.643Z,992.31
2022-09-19T05:25:02.648Z,992.35
2022-09-19T05:26:02.647Z,992.37
2022-09-19T05:27:02.624Z,992.37
2022-09-19T05:28:02.635Z,992.40
2022-09-19T05:29:02.608Z,992.40
2022-09-19T05:30:02.620Z,992.40
2022-09-19T05:31:02.606Z,992.40
2022-09-19T05:32:02.724Z,992.35
2022-09-19T05:33:04.334Z,992.38
2022-09-19T05:34:02.594Z,992.38
2022-09-19T05:35:02.579Z,992.32
2022-09-19T05:36:02.567Z,992.36
2022-09-19T05:37:02.575Z,992.38
2022-09-19T05:38:02.563Z,992.38
2022-09-19T05:39:02.548Z,992.36
2022-09-19T05:40:03.631Z,992.43
2022-09-19T05:41:02.551Z,992.47
2022-09-19T05:42:02.535Z,992.46
2022-09-19T05:43:02.539Z,992.49
2022-09-19T05:44:02.557Z,992.43
2022-09-19T05:45:02.531Z,992.47
2022-09-19T05:46:02.504Z,992.48
2022-09-19T05:47:02.554Z,992.48
2022-09-19T05:48:02.594Z,992.50
2022-09-19T05:49:02.491Z,992.48
2022-09-19T05:50:02.487Z,992.45
2022-09-19T05:51:02.471Z,992.54
2022-09-19T05:52:02.475Z,992.51
2022-09-19T05:53:02.463Z,992.53
2022-09-19T05:54:02.461Z,992.53
2022-09-19T05:55:02.453Z,992.59
2022-09-19T05:56:02.451Z,992.62
2022-09-19T05:57:02.447Z,992.53
2022-09-19T05:58:02.444Z,992.62
2022-09-19T05:59:02.447Z,992.61
2022-09-19T06:00:02.421Z,992.59
2022-09-19T06:01:02.499Z,992.59
2022-09-19T06:02:02.474Z,992.58
2022-09-19T06:03:03.417Z,992.67
2022-09-19T06:04:02.662Z,992.66
2022-09-19T06:05:02.399Z,992.74
2022-09-19T06:06:02.394Z,992.69
2022-09-19T06:07:02.371Z,992.75
2022-09-19T06:08:02.371Z,992.79
2022-09-19T06:09:02.367Z,992.80
2022-09-19T06:10:02.382Z,992.83
2022-09-19T06:11:02.345Z,992.80
2022-09-19T06:12:02.363Z,992.80
2022-09-19T06:13:02.335Z,992.81
2022-09-19T06:14:02.332Z,992.75
2022-09-19T06:15:02.343Z,992.70
2022-09-19T06:16:02.338Z,992.71
2022-09-19T06:17:02.315Z,992.69
2022-09-19T06:18:02.310Z,992.74
2022-09-19T06:19:02.301Z,992.70
2022-09-19T06:20:02.400Z,992.74
2022-09-19T06:21:02.308Z,992.69
2022-09-19T06:22:02.286Z,992.81
2022-09-19T06:23:02.283Z,992.74
2022-09-19T06:24:02.276Z,992.80
2022-09-19T06:25:02.274Z,992.83
2022-09-19T06:26:02.276Z,992.74
2022-09-19T06:27:02.252Z,992.77
2022-09-19T06:28:02.244Z,992.73
2022-09-19T06:29:02.246Z,992.80
2022-09-19T06:30:02.228Z,992.75
2022-09-19T06:31:02.263Z,992.76
2022-09-19T06:32:02.288Z,992.79
2022-09-19T06:33:02.211Z,992.77
2022-09-19T06:34:02.207Z,992.82
2022-09-19T06:35:02.200Z,992.88
2022-09-19T06:36:02.287Z,992.91
2022-09-19T06:37:05.177Z,992.88
2022-09-19T06:38:03.189Z,992.88
2022-09-19T06:39:02.271Z,992.95
2022-09-19T06:40:02.281Z,992.91
2022-09-19T06:41:03.164Z,992.92
2022-09-19T06:42:02.171Z,992.94
2022-09-19T06:43:02.159Z,992.99
2022-09-19T06:44:02.243Z,993.02
2022-09-19T06:45:02.143Z,993.00
2022-09-19T06:46:02.233Z,993.02
2022-09-19T06:47:02.147Z,993.02
2022-09-19T06:48:02.135Z,993.04
2022-09-19T06:49:02.119Z,993.08
2022-09-19T06:50:02.126Z,993.00
2022-09-19T06:51:02.108Z,993.05
2022-09-19T06:52:02.186Z,993.06
2022-09-19T06:53:02.101Z,993.18
2022-09-19T06:54:02.080Z,993.17
2022-09-19T06:55:02.079Z,993.17
2022-09-19T06:56:02.075Z,993.18
2022-09-19T06:57:02.060Z,993.22
2022-09-19T06:58:02.206Z,993.14
2022-09-19T06:59:02.124Z,993.19
2022-09-19T07:00:02.078Z,993.22
2022-09-19T07:01:02.113Z,993.26
2022-09-19T07:02:02.090Z,993.32
2022-09-19T07:03:02.044Z,993.28
2022-09-19T07:04:02.014Z,993.30
2022-09-19T07:05:02.011Z,993.30
2022-09-19T07:06:02.002Z,993.27
2022-09-19T07:07:02.002Z,993.34
2022-09-19T07:08:02.101Z,993.32
2022-09-19T07:09:01.991Z,993.28
2022-09-19T07:10:01.975Z,993.31
2022-09-19T07:11:02.015Z,993.35
2022-09-19T07:12:01.968Z,993.26
2022-09-19T07:13:01.956Z,993.31
2022-09-19T07:14:01.953Z,993.30
2022-09-19T07:15:01.974Z,993.30
2022-09-19T07:16:02.004Z,993.34
2022-09-19T07:17:01.939Z,993.31
2022-09-19T07:18:01.924Z,993.29
2022-09-19T07:19:01.938Z,993.26
2022-09-19T07:20:01.946Z,993.26
2022-09-19T07:21:01.915Z,993.29
2022-09-19T07:22:01.907Z,993.22
2022-09-19T07:23:01.904Z,993.32
2022-09-19T07:24:02.008Z,993.33
2022-09-19T07:25:01.887Z,993.33
2022-09-19T07:26:01.894Z,993.31
2022-09-19T07:27:01.874Z,993.36
2022-09-19T07:28:04.395Z,993.41
2022-09-19T07:29:02.872Z,993.33
2022-09-19T07:30:01.874Z,993.41
2022-09-19T07:31:01.866Z,993.39
2022-09-19T07:32:01.975Z,993.45
2022-09-19T07:33:01.855Z,993.37
2022-09-19T07:34:05.002Z,993.44
2022-09-19T07:35:02.838Z,993.43
2022-09-19T07:36:06.417Z,993.36
2022-09-19T07:37:02.815Z,993.35
2022-09-19T07:38:01.850Z,993.43
2022-09-19T07:39:01.804Z,993.46
2022-09-19T07:40:06.006Z,993.41
2022-09-19T07:41:03.898Z,993.49
2022-09-19T07:42:01.798Z,993.43
2022-09-19T07:43:01.796Z,993.39
2022-09-19T07:44:01.787Z,993.41
2022-09-19T07:45:04.749Z,993.39
2022-09-19T07:46:03.876Z,993.37
2022-09-19T07:47:01.751Z,993.37
2022-09-19T07:48:01.751Z,993.40
2022-09-19T07:49:01.747Z,993.41
2022-09-19T07:50:01.742Z,993.45
2022-09-19T07:51:01.741Z,993.46
2022-09-19T07:52:01.728Z,993.44
2022-09-19T07:53:01.722Z,993.53
2022-09-19T07:54:01.714Z,993.49
2022-09-19T07:55:01.711Z,993.51
2022-09-19T07:56:01.706Z,993.60
2022-09-19T07:57:01.694Z,993.61
2022-09-19T07:58:01.702Z,993.56
2022-09-19T07:59:01.678Z,993.58
2022-09-19T08:00:01.678Z,993.62
2022-09-19T08:01:01.737Z,993.63
2022-09-19T08:02:01.671Z,993.61
2022-09-19T08:03:01.646Z,993.65
2022-09-19T08:04:01.643Z,993.65
2022-09-19T08:05:01.668Z,993.64
2022-09-19T08:06:01.630Z,993.67
2022-09-19T08:07:01.623Z,993.70
2022-09-19T08:08:01.610Z,993.79
2022-09-19T08:09:01.603Z,993.72
2022-09-19T08:10:01.619Z,993.76
2022-09-19T08:11:01.606Z,993.72
2022-09-19T08:12:01.687Z,993.77
2022-09-19T08:13:01.575Z,993.76
2022-09-19T08:14:01.636Z,993.79
2022-09-19T08:15:01.598Z,993.78
2022-09-19T08:16:03.386Z,993.81
2022-09-19T08:17:02.589Z,993.82
2022-09-19T08:18:01.554Z,993.96
2022-09-19T08:19:01.528Z,993.78
2022-09-19T08:20:02.526Z,993.89
2022-09-19T08:21:01.511Z,993.86
2022-09-19T08:22:01.518Z,993.73
2022-09-19T08:23:01.518Z,993.69
2022-09-19T08:24:01.506Z,993.75
2022-09-19T08:25:01.511Z,993.81
2022-09-19T08:26:01.495Z,993.83
2022-09-19T08:27:01.470Z,993.78
2022-09-19T08:28:01.593Z,993.75
2022-09-19T08:29:01.463Z,993.82
2022-09-19T08:30:01.460Z,993.80
2022-09-19T08:31:01.471Z,993.82
2022-09-19T08:32:01.526Z,993.90
2022-09-19T08:33:01.451Z,993.91
2022-09-19T08:34:01.438Z,993.89
2022-09-19T08:35:01.434Z,993.92
2022-09-19T08:36:01.422Z,993.85
2022-09-19T08:37:01.414Z,993.86
2022-09-19T08:38:01.430Z,993.94
2022-09-19T08:39:01.398Z,993.94
2022-09-19T08:40:01.464Z,993.91
2022-09-19T08:41:01.381Z,993.92
2022-09-19T08:42:01.362Z,993.86
2022-09-19T08:43:01.379Z,993.94
2022-09-19T08:44:01.368Z,993.99
2022-09-19T08:45:01.362Z,993.84
2022-09-19T08:46:01.380Z,993.72
2022-09-19T08:47:01.352Z,994.03
2022-09-19T08:48:01.343Z,993.98
2022-09-19T08:49:01.372Z,993.79
2022-09-19T08:50:01.329Z,993.81
2022-09-19T08:51:01.315Z,993.82
2022-09-19T08:52:01.318Z,993.86
2022-09-19T08:53:01.307Z,993.86
2022-09-19T08:54:01.326Z,993.91
2022-09-19T08:55:01.299Z,994.02
2022-09-19T08:56:01.302Z,993.92
2022-09-19T08:57:01.273Z,994.00
2022-09-19T08:58:01.277Z,993.97
2022-09-19T08:59:01.277Z,994.03
2022-09-19T09:00:01.354Z,994.00
2022-09-19T09:01:01.325Z,994.01
2022-09-19T09:02:22.687Z,993.96
2022-09-19T09:03:08.655Z,994.00
2022-09-19T09:04:03.373Z,994.03
2022-09-19T09:05:01.246Z,994.04
2022-09-19T09:06:01.218Z,994.03
2022-09-19T09:07:01.213Z,994.02
2022-09-19T09:08:01.214Z,994.02
2022-09-19T09:09:02.994Z,994.04
2022-09-19T09:10:01.213Z,994.09
2022-09-19T09:11:01.197Z,993.98
2022-09-19T09:12:01.185Z,994.04
2022-09-19T09:13:07.920Z,993.97
2022-09-19T09:14:01.289Z,994.01
2022-09-19T09:15:19.306Z,993.99
2022-09-19T09:16:03.312Z,994.04
2022-09-19T09:17:01.170Z,994.00
2022-09-19T09:18:01.142Z,994.13
2022-09-19T09:19:03.564Z,994.16
2022-09-19T09:20:01.164Z,994.20
2022-09-19T09:21:01.126Z,994.17
2022-09-19T09:22:01.118Z,994.25
2022-09-19T09:23:01.110Z,994.06
2022-09-19T09:24:23.117Z,993.99
2022-09-19T09:25:03.103Z,993.99
2022-09-19T09:26:01.103Z,993.98
2022-09-19T09:27:01.082Z,993.84
2022-09-19T09:28:01.069Z,993.87
2022-09-19T09:29:01.067Z,993.88
2022-09-19T09:30:01.066Z,993.94
2022-09-19T09:31:01.051Z,993.81
2022-09-19T09:32:01.316Z,993.82
2022-09-19T09:33:01.047Z,993.75
2022-09-19T09:34:01.047Z,993.71
2022-09-19T09:35:01.021Z,993.75
2022-09-19T09:36:01.026Z,993.77
2022-09-19T09:37:01.032Z,993.75
2022-09-19T09:38:01.018Z,993.78
2022-09-19T09:39:03.865Z,993.79
2022-09-19T09:40:01.138Z,993.86
2022-09-19T09:41:00.997Z,993.78
2022-09-19T09:42:00.982Z,993.80
2022-09-19T09:43:00.989Z,993.79
2022-09-19T09:44:00.972Z,993.80
2022-09-19T09:45:00.977Z,994.01
2022-09-19T09:46:01.030Z,993.89
2022-09-19T09:47:00.962Z,993.91
2022-09-19T09:48:00.950Z,993.90
2022-09-19T09:49:00.945Z,993.89
2022-09-19T09:50:00.933Z,993.82
2022-09-19T09:51:00.930Z,993.82
2022-09-19T09:52:00.931Z,993.76
2022-09-19T09:53:00.933Z,993.81
2022-09-19T09:54:00.914Z,993.81
2022-09-19T09:55:00.902Z,993.79
2022-09-19T09:56:00.901Z,993.74
2022-09-19T09:57:00.937Z,993.72
2022-09-19T09:58:00.885Z,993.81
2022-09-19T09:59:00.877Z,993.81
2022-09-19T10:00:00.877Z,993.82
2022-09-19T10:01:00.939Z,993.85
2022-09-19T10:02:00.944Z,993.92
2022-09-19T10:03:03.621Z,993.87
2022-09-19T10:04:01.970Z,993.85
2022-09-19T10:05:01.830Z,993.84
2022-09-19T10:06:00.838Z,993.90
2022-09-19T10:07:00.854Z,993.86
2022-09-19T10:08:00.825Z,993.91
2022-09-19T10:09:01.733Z,993.95
2022-09-19T10:10:00.807Z,994.05
2022-09-19T10:11:00.945Z,994.12
2022-09-19T10:13:02.848Z,994.06
2022-09-19T10:14:00.777Z,994.10
2022-09-19T10:15:05.347Z,994.03
2022-09-19T10:16:02.836Z,994.09
2022-09-19T10:17:00.762Z,994.05
2022-09-19T10:18:00.774Z,994.10
2022-09-19T10:19:00.758Z,993.86
2022-09-19T10:20:00.845Z,994.11
2022-09-19T10:21:00.741Z,993.83
2022-09-19T10:22:00.758Z,993.69
2022-09-19T10:23:00.750Z,993.66
2022-09-19T10:24:00.742Z,993.59
2022-09-19T10:25:00.722Z,993.64
2022-09-19T10:26:00.752Z,993.93
2022-09-19T10:27:00.704Z,993.89
2022-09-19T10:28:00.697Z,993.84
2022-09-19T10:29:00.703Z,993.97
2022-09-19T10:30:00.686Z,993.63
2022-09-19T10:31:00.680Z,993.85
2022-09-19T10:32:00.748Z,993.95
2022-09-19T10:33:00.663Z,993.60
2022-09-19T10:34:00.686Z,993.70
2022-09-19T10:35:00.653Z,993.95
2022-09-19T10:36:00.744Z,993.56
2022-09-19T10:37:00.633Z,993.66
2022-09-19T10:38:00.628Z,993.71
2022-09-19T10:39:00.640Z,993.68
2022-09-19T10:40:00.678Z,993.77
2022-09-19T10:41:00.613Z,993.99
2022-09-19T10:42:00.600Z,993.78
2022-09-19T10:43:00.626Z,993.83
2022-09-19T10:44:00.590Z,993.79
2022-09-19T10:45:00.616Z,993.91
2022-09-19T10:46:00.678Z,993.94
2022-09-19T10:47:00.565Z,994.07
2022-09-19T10:48:00.572Z,994.00
2022-09-19T10:49:00.561Z,993.77
2022-09-19T10:50:00.565Z,993.81
2022-09-19T10:51:00.560Z,993.93
2022-09-19T10:52:00.542Z,993.72
2022-09-19T10:53:00.544Z,994.07
2022-09-19T10:54:00.554Z,993.73
2022-09-19T10:55:01.845Z,993.81
2022-09-19T10:56:00.528Z,993.77
2022-09-19T10:57:00.514Z,993.91
2022-09-19T10:58:00.645Z,993.94
2022-09-19T10:59:00.503Z,993.84
2022-09-19T11:00:00.504Z,993.95
2022-09-19T11:01:00.649Z,993.98
2022-09-19T11:02:00.569Z,993.84
2022-09-19T11:03:00.485Z,993.67
2022-09-19T11:04:00.480Z,993.71
2022-09-19T11:05:00.473Z,993.73
2022-09-19T11:06:00.479Z,993.94
2022-09-19T11:07:00.448Z,993.83
2022-09-19T11:08:01.552Z,993.86
2022-09-19T11:09:00.460Z,993.85
2022-09-19T11:10:00.467Z,993.85
2022-09-19T11:11:00.445Z,993.62
2022-09-19T11:12:00.433Z,993.58
2022-09-19T11:13:00.433Z,993.60
2022-09-19T11:14:00.437Z,993.59
2022-09-19T11:15:00.425Z,993.58
2022-09-19T11:16:00.400Z,993.63
2022-09-19T11:17:01.561Z,993.60
2022-09-19T11:18:01.397Z,993.81
2022-09-19T11:19:00.408Z,993.88
2022-09-19T11:20:00.389Z,993.91
2022-09-19T11:21:00.388Z,993.96
2022-09-19T11:22:00.384Z,993.92
2022-09-19T11:23:00.366Z,993.90
2022-09-19T11:24:00.368Z,993.81
2022-09-19T11:25:00.372Z,993.84
2022-09-19T11:26:00.360Z,993.80
2022-09-19T11:27:00.344Z,993.70
2022-09-19T11:28:00.341Z,993.61
2022-09-19T11:29:00.338Z,993.57
2022-09-19T11:30:00.338Z,993.76
2022-09-19T11:31:00.325Z,993.70
2022-09-19T11:33:02.429Z,993.64
2022-09-19T11:35:11.608Z,993.78
2022-09-19T11:36:02.349Z,993.86
2022-09-19T11:37:00.284Z,993.88
2022-09-19T11:38:00.504Z,993.92
2022-09-19T11:40:02.454Z,993.92
2022-09-19T11:41:00.280Z,993.89
2022-09-19T11:42:00.255Z,993.84
2022-09-19T11:43:00.254Z,993.87
2022-09-19T11:44:00.244Z,993.73
2022-09-19T11:45:00.245Z,993.86
2022-09-19T11:46:00.252Z,993.96
2022-09-19T11:47:00.232Z,993.96
2022-09-19T11:48:00.710Z,993.95
2022-09-19T11:49:00.224Z,993.80
2022-09-19T11:50:00.265Z,993.86
2022-09-19T11:51:00.203Z,993.92
2022-09-19T11:52:00.220Z,993.85
2022-09-19T11:53:00.209Z,993.84
2022-09-19T11:54:00.665Z,993.95
2022-09-19T11:55:00.175Z,993.98
2022-09-19T11:56:01.173Z,993.95
2022-09-19T11:57:00.195Z,993.81
2022-09-19T11:58:00.230Z,993.53
2022-09-19T11:59:00.155Z,993.61
2022-09-19T12:00:00.157Z,993.89
2022-09-19T12:01:00.148Z,993.77
2022-09-19T12:02:00.252Z,993.67
2022-09-19T12:03:00.257Z,993.88
2022-09-19T12:04:03.755Z,993.70
2022-09-19T12:05:02.121Z,993.64
2022-09-19T12:06:00.121Z,993.69
2022-09-19T12:07:00.156Z,993.38
2022-09-19T12:08:00.118Z,993.39
2022-09-19T12:09:00.103Z,993.35
2022-09-19T12:10:00.097Z,993.41
2022-09-19T12:11:00.085Z,993.50
2022-09-19T12:12:00.096Z,993.60
2022-09-19T12:13:00.088Z,993.66
2022-09-19T12:14:00.125Z,993.63
2022-09-19T12:15:00.068Z,993.62
2022-09-19T12:16:00.065Z,993.60
2022-09-19T12:17:02.481Z,993.63
2022-09-19T12:18:03.621Z,993.71
2022-09-19T12:19:01.040Z,993.73
2022-09-19T12:20:00.040Z,993.81
2022-09-19T12:21:00.021Z,993.72
2022-09-19T12:22:00.021Z,993.84
2022-09-19T12:23:00.013Z,993.79
2022-09-19T12:24:00.028Z,993.68
2022-09-19T12:25:00.033Z,993.68
2022-09-19T12:26:00.017Z,993.59
2022-09-19T12:26:59.992Z,993.66
2022-09-19T12:27:59.986Z,993.69
2022-09-19T12:28:59.988Z,993.72
2022-09-19T12:30:00.093Z,993.80
2022-09-19T12:31:00.002Z,993.85
2022-09-19T12:32:00.013Z,993.80